Time;durP1;ratioP1;P1;durP2;ratioP2;P2;SDS_P1;SDS_P2;PMS_P1;PMS_P2;Temp;Humidity;BMP_temperature;BMP_pressure;BME280_temperature;BME280_humidity;BME280_pressure;Samples;Min_cycle;Max_cycle;Signal;HPM_P1;HPM_P2
2023/03/12 00:01:16;;;;;;;19.33;12.02;;;-1.20;99.90;;;;;;5074994;28;20142;-76
2023/03/12 00:03:46;;;;;;;17.70;12.15;;;-1.20;99.90;;;;;;5092841;28;20388;-76
2023/03/12 00:06:13;;;;;;;21.05;12.80;;;-1.10;99.90;;;;;;5091770;28;20108;-76
2023/03/12 00:08:41;;;;;;;23.63;12.90;;;-1.10;99.90;;;;;;5092820;28;20626;-76
2023/03/12 00:11:10;;;;;;;18.35;12.15;;;-1.10;99.90;;;;;;5092545;28;20508;-76
2023/03/12 00:13:38;;;;;;;18.70;12.52;;;-1.10;99.90;;;;;;5075255;28;20577;-75
2023/03/12 00:16:09;;;;;;;23.30;12.80;;;-1.10;99.90;;;;;;5092696;28;20040;-76
2023/03/12 00:18:36;;;;;;;20.63;12.05;;;-1.10;99.90;;;;;;5092420;28;20489;-76
2023/03/12 00:21:06;;;;;;;19.38;13.35;;;-1.10;99.90;;;;;;5093598;28;20043;-75
2023/03/12 00:23:34;;;;;;;19.92;12.65;;;-1.10;99.90;;;;;;5091859;28;20051;-76
2023/03/12 00:26:03;;;;;;;19.35;12.80;;;-1.10;99.90;;;;;;5091360;28;20074;-76
2023/03/12 00:28:31;;;;;;;22.73;12.85;;;-1.10;99.90;;;;;;5109295;28;20056;-75
2023/03/12 00:30:59;;;;;;;22.75;13.38;;;-1.10;99.90;;;;;;5093364;28;20078;-76
2023/03/12 00:33:26;;;;;;;20.48;12.63;;;-1.10;99.90;;;;;;5088705;28;20570;-75
2023/03/12 00:35:55;;;;;;;22.27;12.98;;;-1.10;99.90;;;;;;5072009;28;20049;-76
2023/03/12 00:38:24;;;;;;;24.58;13.80;;;-1.00;99.90;;;;;;5073033;28;20053;-76
2023/03/12 00:40:51;;;;;;;20.08;13.43;;;-1.10;99.90;;;;;;5073321;28;20059;-76
2023/03/12 00:43:19;;;;;;;19.15;13.15;;;-1.00;99.90;;;;;;5078471;28;20060;-76
2023/03/12 00:45:46;;;;;;;23.05;14.20;;;-1.00;99.90;;;;;;5073222;28;20052;-76
2023/03/12 00:48:13;;;;;;;29.13;15.00;;;-1.10;99.90;;;;;;5054892;28;20043;-75
2023/03/12 00:50:41;;;;;;;23.60;14.18;;;-1.00;99.90;;;;;;5071645;28;20420;-76
2023/03/12 00:53:08;;;;;;;27.08;15.43;;;-1.00;99.90;;;;;;5089511;28;20048;-76
2023/03/12 00:55:37;;;;;;;22.52;14.40;;;-1.00;99.90;;;;;;5074755;28;20497;-76
2023/03/12 00:58:05;;;;;;;22.52;14.80;;;-1.00;99.90;;;;;;5092963;28;20076;-76
2023/03/12 01:00:32;;;;;;;21.48;14.02;;;-0.90;99.90;;;;;;5069686;28;20075;-76
2023/03/12 01:03:00;;;;;;;23.05;14.80;;;-0.90;99.90;;;;;;5071435;28;20106;-76
2023/03/12 01:05:28;;;;;;;22.05;14.02;;;-0.90;99.90;;;;;;5072807;28;20060;-76
2023/03/12 01:07:55;;;;;;;25.98;14.88;;;-0.90;99.90;;;;;;5072425;28;20132;-76
2023/03/12 01:10:23;;;;;;;22.75;14.45;;;-0.90;99.90;;;;;;5071066;28;20044;-76
2023/03/12 01:12:52;;;;;;;25.92;15.40;;;-1.00;99.90;;;;;;5072284;28;20051;-76
2023/03/12 01:15:19;;;;;;;22.08;14.10;;;-0.90;99.90;;;;;;5087726;28;20128;-75
2023/03/12 01:17:47;;;;;;;24.30;15.02;;;-0.90;99.90;;;;;;5060800;28;20566;-75
2023/03/12 01:20:15;;;;;;;26.38;15.15;;;-0.90;99.90;;;;;;5070667;28;20044;-75
2023/03/12 01:22:42;;;;;;;29.08;15.38;;;-0.90;99.90;;;;;;5054000;28;20524;-76
2023/03/12 01:25:12;;;;;;;22.58;15.45;;;-0.90;99.90;;;;;;5071107;28;20052;-76
2023/03/12 01:27:39;;;;;;;26.23;16.10;;;-0.90;99.90;;;;;;5073822;28;20642;-76
2023/03/12 01:30:11;;;;;;;25.95;15.77;;;-0.80;99.90;;;;;;5092308;28;20044;-76
2023/03/12 01:32:38;;;;;;;25.00;16.30;;;-0.80;99.90;;;;;;5091026;28;20052;-75
2023/03/12 01:35:06;;;;;;;25.85;16.00;;;-0.70;99.90;;;;;;5078922;28;20420;-75
2023/03/12 01:37:34;;;;;;;24.55;15.55;;;-0.80;99.90;;;;;;5063060;28;20047;-75
2023/03/12 01:40:01;;;;;;;26.35;15.20;;;-0.80;99.90;;;;;;5092198;28;20105;-75
2023/03/12 01:42:29;;;;;;;30.00;17.23;;;-0.70;99.90;;;;;;5070361;28;20054;-76
2023/03/12 01:44:59;;;;;;;30.65;17.35;;;-0.60;99.90;;;;;;5070387;28;20075;-76
2023/03/12 01:47:34;;;;;;;30.17;17.40;;;-0.60;99.90;;;;;;5087036;28;20055;-76
2023/03/12 01:50:08;;;;;;;31.40;18.65;;;-0.70;99.90;;;;;;5090483;28;20056;-75
2023/03/12 01:52:38;;;;;;;30.05;18.75;;;-0.80;99.90;;;;;;5089932;28;20401;-75
2023/03/12 01:55:10;;;;;;;32.20;18.83;;;-0.80;99.90;;;;;;5084808;28;20054;-75
2023/03/12 01:57:46;;;;;;;33.40;19.40;;;-0.80;99.90;;;;;;5053653;28;20048;-75
2023/03/12 02:00:18;;;;;;;32.60;20.27;;;-0.80;99.90;;;;;;5070382;28;20045;-75
2023/03/12 02:02:49;;;;;;;36.58;21.00;;;-0.80;99.90;;;;;;5069824;28;20428;-74
2023/03/12 02:05:29;;;;;;;39.53;22.00;;;-0.80;99.90;;;;;;5069410;28;20048;-75
2023/03/12 02:07:57;;;;;;;38.72;23.02;;;-0.80;99.90;;;;;;5070412;28;20527;-75
2023/03/12 02:10:25;;;;;;;36.83;21.73;;;-0.80;99.90;;;;;;5071509;28;20056;-75
2023/03/12 02:12:54;;;;;;;36.70;21.67;;;-0.80;99.90;;;;;;5105500;28;20051;-75
2023/03/12 02:15:22;;;;;;;37.40;21.27;;;-0.90;99.90;;;;;;5091279;28;20076;-75
2023/03/12 02:17:53;;;;;;;37.15;20.40;;;-0.90;99.90;;;;;;5091587;28;20047;-74
2023/03/12 02:20:27;;;;;;;34.78;20.08;;;-1.00;99.90;;;;;;5091298;28;20044;-75
2023/03/12 02:23:03;;;;;;;29.98;18.38;;;-1.00;99.90;;;;;;5079837;28;20134;-74
2023/03/12 02:25:38;;;;;;;33.90;20.08;;;-1.00;99.90;;;;;;5053406;28;20053;-74
2023/03/12 02:28:11;;;;;;;30.40;18.20;;;-1.00;99.90;;;;;;5069885;28;20052;-75
2023/03/12 02:30:41;;;;;;;28.05;17.15;;;-1.00;99.90;;;;;;5069565;28;20048;-74
2023/03/12 02:33:10;;;;;;;32.92;17.15;;;-1.00;99.90;;;;;;5070072;28;20095;-74
2023/03/12 02:35:38;;;;;;;24.23;15.20;;;-1.00;99.90;;;;;;5052934;28;20072;-74
2023/03/12 02:38:42;;;;;;;21.63;14.52;;;-1.00;99.90;;;;;;5069828;28;20142;-75
2023/03/12 02:41:20;;;;;;;28.40;15.80;;;-0.90;99.90;;;;;;5056514;28;20079;-76
2023/03/12 02:43:51;;;;;;;27.45;16.25;;;-0.90;99.90;;;;;;5069915;28;20048;-74
2023/03/12 02:46:18;;;;;;;26.63;15.68;;;-1.00;99.90;;;;;;5069712;28;20052;-75
2023/03/12 02:48:46;;;;;;;19.65;11.98;;;-1.00;99.90;;;;;;5070165;28;20050;-76
2023/03/12 02:51:13;;;;;;;25.77;15.20;;;-1.10;99.90;;;;;;5052473;28;20049;-76
2023/03/12 02:53:41;;;;;;;24.58;15.88;;;-1.10;99.90;;;;;;5070951;28;20547;-76
2023/03/12 02:56:08;;;;;;;28.20;14.95;;;-1.10;99.90;;;;;;5070877;28;20084;-74
2023/03/12 02:58:37;;;;;;;23.00;14.07;;;-1.00;99.90;;;;;;5073563;28;20469;-75
2023/03/12 03:01:05;;;;;;;27.10;15.63;;;-1.10;99.90;;;;;;5084608;28;20068;-75
2023/03/12 03:03:33;;;;;;;23.02;14.57;;;-1.10;99.90;;;;;;5069154;28;20151;-74
2023/03/12 03:06:00;;;;;;;24.73;15.35;;;-1.10;99.90;;;;;;5069677;28;20105;-74
2023/03/12 03:08:28;;;;;;;24.10;14.88;;;-1.10;99.90;;;;;;5080911;28;20036;-75
2023/03/12 03:10:55;;;;;;;21.55;13.82;;;-1.10;99.90;;;;;;5088867;28;20048;-73
2023/03/12 03:13:23;;;;;;;26.85;14.43;;;-1.20;99.90;;;;;;5089675;28;20055;-74
2023/03/12 03:15:52;;;;;;;19.65;12.75;;;-1.20;99.90;;;;;;5089559;28;20047;-75
2023/03/12 03:18:20;;;;;;;23.85;14.75;;;-1.20;99.90;;;;;;5072510;28;20393;-74
2023/03/12 03:20:56;;;;;;;21.02;12.73;;;-1.20;99.90;;;;;;5089681;28;20058;-74
2023/03/12 03:23:23;;;;;;;19.13;11.80;;;-1.30;99.90;;;;;;5076236;28;20249;-75
2023/03/12 03:25:51;;;;;;;17.65;10.90;;;-1.40;99.90;;;;;;5090247;28;20045;-75
2023/03/12 03:28:19;;;;;;;16.45;10.38;;;-1.40;99.90;;;;;;5074045;28;20139;-75
2023/03/12 03:30:47;;;;;;;18.05;11.65;;;-1.40;99.90;;;;;;5081021;28;20116;-75
2023/03/12 03:33:16;;;;;;;18.75;12.15;;;-1.40;99.90;;;;;;5093440;28;20048;-75
2023/03/12 03:35:43;;;;;;;13.63;9.95;;;-1.40;99.90;;;;;;5076484;28;20143;-75
2023/03/12 03:38:11;;;;;;;22.27;11.90;;;-1.40;99.90;;;;;;5076605;28;20040;-75
2023/03/12 03:40:39;;;;;;;18.45;11.55;;;-1.40;99.90;;;;;;5074519;28;20048;-74
2023/03/12 03:43:06;;;;;;;16.27;9.73;;;-1.40;99.90;;;;;;5093226;28;20473;-75
2023/03/12 03:45:34;;;;;;;19.23;10.68;;;-1.50;99.90;;;;;;5075262;28;20496;-75
2023/03/12 03:48:02;;;;;;;13.25;9.55;;;-1.50;99.90;;;;;;5075833;28;20123;-75
2023/03/12 03:50:31;;;;;;;14.05;9.70;;;-1.50;99.90;;;;;;5081438;28;20520;-75
2023/03/12 03:52:59;;;;;;;15.10;9.20;;;-1.60;99.90;;;;;;5091980;28;20052;-76
2023/03/12 03:55:27;;;;;;;13.45;8.30;;;-1.60;99.90;;;;;;5093893;28;20133;-75
2023/03/12 03:57:54;;;;;;;14.82;8.77;;;-1.60;99.90;;;;;;5092670;28;20054;-75
2023/03/12 04:00:22;;;;;;;15.90;9.93;;;-1.60;99.90;;;;;;5074684;28;20071;-75
2023/03/12 04:02:52;;;;;;;14.55;11.05;;;-1.60;99.90;;;;;;5105131;27;20475;-75
2023/03/12 04:05:20;;;;;;;13.10;8.98;;;-1.60;99.90;;;;;;5073583;28;20048;-75
2023/03/12 04:07:53;;;;;;;13.07;7.88;;;-1.60;99.90;;;;;;5072416;28;20052;-75
2023/03/12 04:10:25;;;;;;;12.45;9.32;;;-1.50;99.90;;;;;;5084311;28;20556;-75
2023/03/12 04:12:52;;;;;;;14.30;9.05;;;-1.60;99.90;;;;;;5071878;28;20057;-75
2023/03/12 04:15:20;;;;;;;13.98;8.75;;;-1.60;99.90;;;;;;5080898;28;20044;-74
2023/03/12 04:17:49;;;;;;;11.85;8.95;;;-1.70;99.90;;;;;;5075165;28;20150;-75
2023/03/12 04:20:17;;;;;;;14.05;8.07;;;-1.70;99.90;;;;;;5091302;28;20504;-75
2023/03/12 04:22:45;;;;;;;13.65;8.35;;;-1.60;99.90;;;;;;5073961;28;20055;-75
2023/03/12 04:25:14;;;;;;;10.77;7.20;;;-1.70;99.90;;;;;;5091992;28;20071;-75
2023/03/12 04:27:41;;;;;;;11.88;7.80;;;-1.70;99.90;;;;;;5090200;28;20067;-75
2023/03/12 04:30:10;;;;;;;12.43;7.35;;;-1.70;99.90;;;;;;5072493;28;20044;-75
2023/03/12 04:32:39;;;;;;;13.95;7.55;;;-1.80;99.90;;;;;;5083629;28;20048;-75
2023/03/12 04:35:07;;;;;;;12.65;8.07;;;-1.80;99.90;;;;;;5074639;28;20084;-76
2023/03/12 04:37:35;;;;;;;10.32;8.05;;;-1.80;99.90;;;;;;5075026;28;20454;-76
2023/03/12 04:40:06;;;;;;;11.50;7.45;;;-1.80;99.90;;;;;;5091031;28;20048;-76
2023/03/12 04:42:36;;;;;;;12.13;7.38;;;-1.80;99.90;;;;;;5092090;28;20048;-74
2023/03/12 04:45:07;;;;;;;12.93;7.13;;;-1.80;99.90;;;;;;5087145;28;20064;-75
2023/03/12 04:47:37;;;;;;;9.63;8.00;;;-1.80;99.90;;;;;;5071019;28;20050;-75
2023/03/12 04:50:07;;;;;;;14.48;8.07;;;-1.90;99.90;;;;;;5084854;28;20066;-75
2023/03/12 04:52:36;;;;;;;12.45;7.43;;;-1.90;99.90;;;;;;5069631;28;20063;-75
2023/03/12 04:55:08;;;;;;;9.68;6.93;;;-1.90;99.90;;;;;;5088582;28;20093;-74
2023/03/12 04:57:37;;;;;;;12.32;7.10;;;-1.90;99.90;;;;;;5073321;28;20519;-76
2023/03/12 05:00:09;;;;;;;13.23;7.00;;;-2.00;99.90;;;;;;5056016;28;20048;-76
2023/03/12 05:02:37;;;;;;;12.68;7.90;;;-2.00;99.90;;;;;;5073935;28;20397;-76
2023/03/12 05:05:06;;;;;;;13.63;7.93;;;-2.00;99.90;;;;;;5091057;28;20050;-76
2023/03/12 05:07:34;;;;;;;11.80;7.35;;;-2.00;99.90;;;;;;5074553;28;20048;-77
2023/03/12 05:10:03;;;;;;;11.52;7.40;;;-2.00;99.90;;;;;;5074763;28;20101;-77
2023/03/12 05:12:31;;;;;;;14.00;7.50;;;-1.90;99.90;;;;;;5073709;28;20537;-77
2023/03/12 05:14:59;;;;;;;12.75;7.47;;;-1.90;99.90;;;;;;5090824;28;20641;-77
2023/03/12 05:17:28;;;;;;;10.77;7.07;;;-1.90;99.90;;;;;;5091700;28;20048;-75
2023/03/12 05:19:55;;;;;;;10.00;7.13;;;-1.90;99.90;;;;;;5092776;28;20040;-75
2023/03/12 05:22:23;;;;;;;17.80;7.60;;;-1.90;99.90;;;;;;5086715;28;20048;-75
2023/03/12 05:24:51;;;;;;;10.05;6.88;;;-1.90;99.90;;;;;;5083806;28;20044;-75
2023/03/12 05:27:19;;;;;;;11.68;6.82;;;-1.90;99.90;;;;;;5123043;22;20035;-75
2023/03/12 05:29:47;;;;;;;12.05;7.03;;;-1.90;99.90;;;;;;5074548;28;20052;-76
2023/03/12 05:32:16;;;;;;;9.93;6.90;;;-1.90;99.90;;;;;;5056324;28;20052;-76
2023/03/12 05:34:44;;;;;;;9.40;6.55;;;-1.90;99.90;;;;;;5089940;28;20047;-76
2023/03/12 05:37:12;;;;;;;11.18;7.53;;;-1.90;99.90;;;;;;5076276;28;20044;-77
2023/03/12 05:39:45;;;;;;;7.55;5.78;;;-1.90;99.90;;;;;;5073720;28;20135;-76
2023/03/12 05:42:15;;;;;;;11.07;6.70;;;-1.80;99.90;;;;;;5079512;28;20068;-75
2023/03/12 05:44:44;;;;;;;10.55;6.32;;;-1.80;99.90;;;;;;5068580;28;20051;-75
2023/03/12 05:47:18;;;;;;;8.75;6.20;;;-1.80;99.90;;;;;;5055713;28;20054;-76
2023/03/12 05:49:46;;;;;;;9.70;6.65;;;-1.70;99.90;;;;;;5071341;28;20048;-76
2023/03/12 05:52:14;;;;;;;10.27;7.25;;;-1.70;99.90;;;;;;5071537;28;20467;-76
2023/03/12 05:54:43;;;;;;;8.52;5.07;;;-1.70;99.90;;;;;;5053805;28;20059;-77
2023/03/12 05:57:11;;;;;;;9.57;5.00;;;-1.70;99.90;;;;;;5075100;28;20048;-77
2023/03/12 05:59:39;;;;;;;6.72;4.70;;;-1.60;99.90;;;;;;5088635;28;20052;-75
2023/03/12 06:02:08;;;;;;;5.25;3.90;;;-1.60;99.90;;;;;;5073326;28;20052;-76
2023/03/12 06:04:37;;;;;;;5.97;4.60;;;-1.50;99.90;;;;;;5090278;28;20075;-76
2023/03/12 06:07:08;;;;;;;7.70;4.65;;;-1.50;99.90;;;;;;5072898;28;20143;-75
2023/03/12 06:09:36;;;;;;;6.63;4.53;;;-1.50;99.90;;;;;;5090209;28;20063;-75
2023/03/12 06:12:07;;;;;;;6.00;4.15;;;-1.50;99.90;;;;;;5090670;28;20052;-76
2023/03/12 06:14:34;;;;;;;5.88;4.45;;;-1.40;99.90;;;;;;5090048;28;20052;-77
2023/03/12 06:17:02;;;;;;;4.35;3.65;;;-1.40;99.90;;;;;;5067642;28;20054;-76
2023/03/12 06:19:30;;;;;;;5.43;3.85;;;-1.40;99.90;;;;;;5069830;28;20477;-76
2023/03/12 06:22:03;;;;;;;4.97;4.15;;;-1.40;99.90;;;;;;5074867;28;20047;-75
2023/03/12 06:24:31;;;;;;;4.22;3.80;;;-1.30;99.90;;;;;;5082776;28;20056;-79
2023/03/12 06:27:04;;;;;;;5.32;3.80;;;-1.30;99.90;;;;;;5072922;28;20139;-82
2023/03/12 06:29:32;;;;;;;5.75;4.38;;;-1.40;99.90;;;;;;5084772;28;20443;-80
2023/03/12 06:32:00;;;;;;;6.60;4.30;;;-1.40;99.90;;;;;;5090607;28;20277;-79
2023/03/12 06:34:27;;;;;;;3.85;3.45;;;-1.40;99.90;;;;;;5088180;28;20046;-80
2023/03/12 06:36:55;;;;;;;5.82;4.03;;;-1.40;99.90;;;;;;5087336;28;20052;-77
2023/03/12 06:39:25;;;;;;;6.30;2.92;;;-1.40;99.90;;;;;;5086279;28;20052;-78
2023/03/12 06:41:53;;;;;;;4.35;3.08;;;-1.40;99.90;;;;;;5090368;28;20054;-77
2023/03/12 06:44:20;;;;;;;2.75;2.40;;;-1.40;99.90;;;;;;5090417;28;20093;-75
2023/03/12 06:46:48;;;;;;;4.28;3.08;;;-1.40;99.90;;;;;;5090268;28;20043;-75
2023/03/12 06:49:15;;;;;;;3.80;2.78;;;-1.40;99.90;;;;;;5088837;28;20140;-76
2023/03/12 06:51:43;;;;;;;4.35;2.53;;;-1.40;99.90;;;;;;5091151;28;20072;-75
2023/03/12 06:54:11;;;;;;;5.03;2.45;;;-1.40;99.90;;;;;;5091167;28;20048;-76
2023/03/12 06:56:43;;;;;;;3.40;2.50;;;-1.40;99.90;;;;;;5088549;28;20553;-78
2023/03/12 06:59:10;;;;;;;3.17;2.65;;;-1.40;99.90;;;;;;5092761;28;20060;-79
2023/03/12 07:01:38;;;;;;;4.50;3.05;;;-1.50;99.90;;;;;;5094301;28;20098;-77
2023/03/12 07:04:05;;;;;;;4.40;2.03;;;-1.50;99.90;;;;;;5092752;28;20044;-77
2023/03/12 07:06:33;;;;;;;4.45;3.30;;;-1.40;99.90;;;;;;5091188;28;20044;-77
2023/03/12 07:09:01;;;;;;;5.25;3.05;;;-1.50;99.90;;;;;;5090349;28;20050;-77
2023/03/12 07:11:28;;;;;;;5.00;2.42;;;-1.50;99.90;;;;;;5089497;28;20106;-78
2023/03/12 07:14:00;;;;;;;2.50;2.30;;;-1.40;99.90;;;;;;5091979;28;20094;-77
2023/03/12 07:16:29;;;;;;;3.60;2.95;;;-1.40;99.90;;;;;;5075430;28;20185;-76
2023/03/12 07:18:57;;;;;;;3.20;2.55;;;-1.30;99.90;;;;;;5094129;28;20082;-77
2023/03/12 07:21:30;;;;;;;17.10;8.25;;;-1.20;99.90;;;;;;5094011;28;20109;-77
2023/03/12 07:24:02;;;;;;;3.83;3.00;;;-1.20;99.90;;;;;;5087797;28;20068;-77
2023/03/12 07:26:31;;;;;;;3.13;1.75;;;-1.20;99.90;;;;;;5077186;28;20040;-76
2023/03/12 07:29:00;;;;;;;5.68;2.47;;;-1.40;99.90;;;;;;5086643;28;20048;-75
2023/03/12 07:31:28;;;;;;;3.05;2.53;;;-1.40;99.90;;;;;;5084366;28;20463;-74
2023/03/12 07:33:56;;;;;;;2.90;2.60;;;-1.40;99.90;;;;;;5076186;28;20582;-76
2023/03/12 07:36:23;;;;;;;3.10;2.28;;;-1.50;99.90;;;;;;5081787;28;20591;-74
2023/03/12 07:38:51;;;;;;;3.50;2.67;;;-1.40;99.90;;;;;;5072025;28;20052;-76
2023/03/12 07:41:19;;;;;;;5.75;2.30;;;-1.50;99.90;;;;;;5073173;28;20060;-77
2023/03/12 07:43:46;;;;;;;3.17;2.50;;;-1.40;99.90;;;;;;5075224;28;20059;-76
2023/03/12 07:46:16;;;;;;;5.25;2.55;;;-1.40;99.90;;;;;;5080618;28;20052;-76
2023/03/12 07:48:44;;;;;;;2.92;2.45;;;-1.40;99.90;;;;;;5080453;28;20048;-77
2023/03/12 07:51:13;;;;;;;3.25;2.30;;;-1.30;99.90;;;;;;5086589;28;20040;-79
2023/03/12 07:53:40;;;;;;;3.15;2.53;;;-1.30;99.90;;;;;;5088793;28;20056;-80
2023/03/12 07:56:24;;;;;;;3.10;2.60;;;-1.20;99.90;;;;;;5078821;28;20040;-80
2023/03/12 07:58:56;;;;;;;2.90;1.95;;;-1.20;99.90;;;;;;5094647;28;20047;-82
2023/03/12 08:01:35;;;;;;;3.30;2.13;;;-1.20;99.90;;;;;;5094650;28;20062;-81
2023/03/12 08:04:08;;;;;;;2.78;2.03;;;-1.30;99.90;;;;;;5077161;28;20104;-80
2023/03/12 08:06:37;;;;;;;2.55;2.35;;;-1.30;99.90;;;;;;5090844;28;20105;-83
2023/03/12 08:09:05;;;;;;;2.63;2.42;;;-1.30;99.90;;;;;;5079405;28;20065;-77
2023/03/12 08:11:36;;;;;;;2.53;2.10;;;-1.30;99.90;;;;;;5093438;28;20040;-80
2023/03/12 08:14:08;;;;;;;2.97;2.47;;;-1.40;99.90;;;;;;5092480;28;20047;-81
2023/03/12 08:16:37;;;;;;;;;;;-1.40;99.90;;;;;;5091208;28;20044;-82
2023/03/12 08:19:05;;;;;;;3.33;2.30;;;-1.50;99.90;;;;;;5093642;28;19931;-81
2023/03/12 08:21:34;;;;;;;3.17;2.10;;;-1.40;99.90;;;;;;5075635;28;20097;-81
2023/03/12 08:24:04;;;;;;;3.65;1.75;;;-1.40;99.90;;;;;;5094724;28;20055;-86
2023/03/12 08:26:32;;;;;;;2.88;2.60;;;-1.40;99.90;;;;;;5083892;28;20036;-75
2023/03/12 08:29:00;;;;;;;5.93;2.22;;;-1.40;99.90;;;;;;5078292;28;20060;-78
2023/03/12 08:31:28;;;;;;;3.55;2.50;;;-1.40;99.90;;;;;;5091179;28;20071;-79
2023/03/12 08:33:57;;;;;;;3.47;2.95;;;-1.50;99.90;;;;;;5087873;28;20052;-79
2023/03/12 08:36:25;;;;;;;4.30;2.40;;;-1.40;99.90;;;;;;5084841;28;20057;-79
2023/03/12 08:38:53;;;;;;;4.18;2.30;;;-1.40;99.90;;;;;;5064376;28;20508;-79
2023/03/12 08:41:21;;;;;;;2.50;2.30;;;-1.50;99.90;;;;;;5081178;28;20052;-80
2023/03/12 08:43:49;;;;;;;3.20;2.38;;;-1.50;99.90;;;;;;5082494;28;20050;-80
2023/03/12 08:46:16;;;;;;;4.03;2.10;;;-1.50;99.90;;;;;;5092091;28;20056;-79
2023/03/12 08:48:44;;;;;;;6.78;3.08;;;-1.50;99.90;;;;;;5083262;28;20056;-79
2023/03/12 08:51:13;;;;;;;5.18;2.88;;;-1.50;99.90;;;;;;5081652;28;20040;-82
2023/03/12 08:53:41;;;;;;;5.43;3.08;;;-1.40;99.90;;;;;;5091587;28;20599;-79
2023/03/12 08:56:09;;;;;;;3.17;2.40;;;-1.40;99.90;;;;;;5086868;28;20052;-79
2023/03/12 08:58:36;;;;;;;3.00;2.35;;;-1.40;99.90;;;;;;5089356;28;20534;-81
2023/03/12 09:01:09;;;;;;;3.33;2.38;;;-1.40;99.90;;;;;;5086458;28;20487;-78
2023/03/12 09:03:37;;;;;;;3.60;2.47;;;-1.30;99.90;;;;;;5090251;28;20042;-82
2023/03/12 09:06:08;;;;;;;6.32;2.53;;;-1.30;99.90;;;;;;5077050;28;20044;-83
2023/03/12 09:08:37;;;;;;;3.10;2.40;;;-1.30;99.90;;;;;;5079543;28;20097;-77
2023/03/12 09:11:05;;;;;;;3.40;2.50;;;-1.40;99.90;;;;;;5089360;28;20044;-82
2023/03/12 09:13:33;;;;;;;5.57;2.53;;;-1.40;99.90;;;;;;5089206;28;20538;-79
2023/03/12 09:16:01;;;;;;;3.05;2.60;;;-1.40;99.90;;;;;;5087244;28;20123;-87
2023/03/12 09:18:29;;;;;;;2.45;2.25;;;-1.30;99.90;;;;;;5061864;28;20415;-82
2023/03/12 09:20:57;;;;;;;6.43;2.40;;;-1.40;99.90;;;;;;5091190;28;20196;-80
2023/03/12 09:23:26;;;;;;;6.25;2.38;;;-1.40;99.90;;;;;;5072723;28;20055;-81
2023/03/12 09:25:56;;;;;;;2.50;2.30;;;-1.40;99.90;;;;;;5077220;28;20060;-82
2023/03/12 09:28:24;;;;;;;4.63;2.28;;;-1.40;99.90;;;;;;5074230;28;20053;-81
2023/03/12 09:30:52;;;;;;;4.47;2.08;;;-1.30;99.90;;;;;;5087256;28;20143;-81
2023/03/12 09:33:20;;;;;;;2.45;2.08;;;-1.40;99.90;;;;;;5086192;28;20135;-79
2023/03/12 09:35:57;;;;;;;6.13;2.75;;;-1.40;99.90;;;;;;5091065;28;20051;-80
2023/03/12 09:38:25;;;;;;;4.05;2.00;;;-1.40;99.90;;;;;;5091057;28;20047;-82
2023/03/12 09:41:00;;;;;;;4.35;2.05;;;-1.50;99.90;;;;;;5083645;28;20546;-82
2023/03/12 09:43:37;;;;;;;4.85;2.15;;;-1.40;99.90;;;;;;5084275;28;20394;-80
2023/03/12 09:46:17;;;;;;;3.67;2.70;;;-1.50;99.90;;;;;;5073774;28;20105;-82
2023/03/12 09:48:57;;;;;;;2.88;2.42;;;-1.50;99.90;;;;;;5089831;28;20048;-80
2023/03/12 09:51:33;;;;;;;3.42;2.40;;;-1.50;99.90;;;;;;5088069;28;20123;-82
2023/03/12 09:54:05;;;;;;;2.70;1.27;;;-1.40;99.90;;;;;;5079153;28;20052;-83
2023/03/12 09:56:34;;;;;;;5.82;2.45;;;-1.30;99.90;;;;;;5073765;28;20050;-81
2023/03/12 09:59:02;;;;;;;2.88;2.20;;;-1.20;99.90;;;;;;5076706;28;20052;-81
2023/03/12 10:01:39;;;;;;;2.70;2.15;;;-1.10;99.90;;;;;;5089405;28;20480;-80
2023/03/12 10:04:25;;;;;;;4.63;2.67;;;-1.00;99.90;;;;;;5090097;28;20107;-80
2023/03/12 10:07:02;;;;;;;2.70;1.80;;;-0.90;99.90;;;;;;5087103;28;20063;-81
2023/03/12 10:10:01;;;;;;;1.92;1.75;;;-0.80;99.90;;;;;;5080802;28;20059;-82
2023/03/12 10:12:45;;;;;;;3.28;2.47;;;-0.80;99.90;;;;;;5090721;28;20044;-80
2023/03/12 10:15:27;;;;;;;2.30;2.00;;;-0.70;99.90;;;;;;5091493;28;20054;-81
2023/03/12 10:18:11;;;;;;;4.63;2.55;;;-0.60;99.90;;;;;;5080096;28;20474;-81
2023/03/12 10:21:04;;;;;;;3.53;2.45;;;-0.50;99.90;;;;;;5086858;28;20056;-80
2023/03/12 10:23:57;;;;;;;4.43;2.47;;;-0.10;99.90;;;;;;5084832;28;20152;-82
2023/03/12 10:26:30;;;;;;;4.97;2.15;;;0.40;99.90;;;;;;5090516;28;20068;-81
2023/03/12 10:29:12;;;;;;;2.95;2.13;;;0.80;99.90;;;;;;5090869;28;20048;-81
2023/03/12 10:31:52;;;;;;;4.28;2.50;;;1.00;99.90;;;;;;5077117;28;20052;-81
2023/03/12 10:34:26;;;;;;;3.15;2.00;;;1.40;99.90;;;;;;5086243;28;20429;-85
2023/03/12 10:36:59;;;;;;;2.33;1.70;;;1.40;99.90;;;;;;5090556;28;20538;-82
2023/03/12 10:39:27;;;;;;;5.50;2.08;;;1.10;99.90;;;;;;5075324;28;20085;-81
2023/03/12 10:42:00;;;;;;;3.08;2.17;;;0.80;99.90;;;;;;5089749;28;20382;-83
2023/03/12 10:44:43;;;;;;;4.43;2.10;;;0.50;99.90;;;;;;5080134;28;20088;-83
2023/03/12 10:47:34;;;;;;;2.63;1.77;;;0.40;99.90;;;;;;5088319;28;20039;-84
2023/03/12 10:50:17;;;;;;;2.22;1.88;;;0.20;99.90;;;;;;5090695;28;20044;-79
2023/03/12 10:52:47;;;;;;;9.98;2.35;;;0.00;99.90;;;;;;5088148;28;20056;-80
2023/03/12 10:55:28;;;;;;;2.83;1.60;;;-0.40;99.90;;;;;;5071706;28;20416;-83
2023/03/12 10:57:58;;;;;;;2.25;1.60;;;-0.70;99.90;;;;;;5083809;28;20048;-79
2023/03/12 11:00:32;;;;;;;2.15;1.42;;;-1.00;99.90;;;;;;5086383;28;20048;-80
2023/03/12 11:03:03;;;;;;;1.92;1.52;;;-1.10;99.90;;;;;;5077206;28;20083;-80
2023/03/12 11:05:33;;;;;;;3.00;1.20;;;-1.30;99.90;;;;;;5090119;28;20050;-80
2023/03/12 11:08:18;;;;;;;3.00;1.83;;;-1.40;99.90;;;;;;5091098;28;20063;-80
2023/03/12 11:10:47;;;;;;;2.10;1.38;;;-1.40;99.90;;;;;;5079662;28;20443;-78
2023/03/12 11:13:28;;;;;;;1.75;1.35;;;-1.30;99.90;;;;;;5072416;28;20039;-78
2023/03/12 11:16:02;;;;;;;2.28;1.52;;;-1.10;99.90;;;;;;5053374;28;20060;-81
2023/03/12 11:18:35;;;;;;;1.65;1.27;;;-0.90;99.90;;;;;;5093610;28;20052;-80
2023/03/12 11:21:18;;;;;;;1.50;1.40;;;-0.90;99.90;;;;;;5083123;28;20048;-76
2023/03/12 11:24:06;;;;;;;3.05;1.60;;;-1.00;99.90;;;;;;5085246;28;20063;-79
2023/03/12 11:26:40;;;;;;;2.25;1.73;;;-1.00;99.90;;;;;;5087886;28;20052;-77
2023/03/12 11:29:23;;;;;;;1.98;0.98;;;-1.10;99.90;;;;;;5068669;28;20106;-76
2023/03/12 11:32:06;;;;;;;1.45;1.33;;;-1.20;99.90;;;;;;5075641;28;20036;-75
2023/03/12 11:34:37;;;;;;;1.27;1.13;;;-1.40;99.90;;;;;;5077895;28;20156;-76
2023/03/12 11:37:12;;;;;;;1.45;1.33;;;-1.40;99.90;;;;;;5084363;28;20091;-75
2023/03/12 11:39:58;;;;;;;1.52;1.25;;;-1.30;99.90;;;;;;5073058;28;20056;-77
2023/03/12 11:42:43;;;;;;;4.55;2.30;;;-1.20;99.90;;;;;;5089602;28;20139;-77
2023/03/12 11:45:23;;;;;;;1.67;1.48;;;-1.20;99.90;;;;;;5085990;28;20056;-82
2023/03/12 11:48:09;;;;;;;1.92;1.13;;;-1.20;99.90;;;;;;5095171;28;20056;-83
2023/03/12 11:50:59;;;;;;;1.77;1.35;;;-1.00;99.90;;;;;;5089086;28;20105;-83
2023/03/12 11:54:00;;;;;;;1.30;1.10;;;-0.80;99.90;;;;;;5085343;28;20056;-78
2023/03/12 11:56:30;;;;;;;2.58;1.20;;;-0.90;99.90;;;;;;5089469;28;20047;-78
2023/03/12 11:59:14;;;;;;;1.30;0.95;;;-0.80;99.90;;;;;;5093607;28;20071;-76
2023/03/12 12:01:57;;;;;;;3.40;1.45;;;-1.00;99.90;;;;;;5072896;28;20052;-76
2023/03/12 12:04:54;;;;;;;;;;;-1.20;99.90;;;;;;5082972;28;20045;-76
2023/03/12 12:07:39;;;;;;;2.70;1.50;;;-1.40;99.90;;;;;;5073632;28;20328;-77
2023/03/12 12:10:19;;;;;;;3.08;1.38;;;-1.60;99.90;;;;;;5086368;28;20565;-77
2023/03/12 12:12:58;;;;;;;5.03;1.58;;;-1.80;99.90;;;;;;5092830;28;20054;-81
2023/03/12 12:15:35;;;;;;;2.13;1.08;;;-2.00;99.90;;;;;;5092074;28;20546;-81
2023/03/12 12:18:20;;;;;;;2.92;1.77;;;-2.20;99.90;;;;;;5076432;28;20044;-82
2023/03/12 12:20:58;;;;;;;1.92;1.40;;;-2.20;99.90;;;;;;5087246;28;20186;-80
2023/03/12 12:23:38;;;;;;;3.63;1.83;;;-2.30;99.90;;;;;;5078169;28;20063;-81
2023/03/12 12:26:09;;;;;;;7.55;1.60;;;-2.30;99.90;;;;;;5085973;28;20056;-81
2023/03/12 12:29:09;;;;;;;2.03;1.48;;;-2.40;99.90;;;;;;5084387;28;20389;-80
2023/03/12 12:31:45;;;;;;;4.38;1.90;;;-2.40;99.90;;;;;;5084488;28;20047;-85
2023/03/12 12:34:59;;;;;;;2.05;1.55;;;-2.30;99.90;;;;;;5080125;28;20048;-82
2023/03/12 12:37:54;;;;;;;3.88;1.85;;;-2.20;99.90;;;;;;5080676;28;20079;-80
2023/03/12 12:40:28;;;;;;;1.58;1.25;;;-2.10;99.90;;;;;;5079697;28;20121;-81
2023/03/12 12:43:11;;;;;;;2.35;1.83;;;-1.90;99.90;;;;;;5081652;28;20048;-81
2023/03/12 12:45:41;;;;;;;;;;;-1.90;99.90;;;;;;5083796;28;20499;-82
2023/03/12 12:48:18;;;;;;;4.25;1.50;;;-1.80;99.90;;;;;;5082997;28;19969;-84
2023/03/12 12:50:47;;;;;;;5.07;1.42;;;-1.80;99.90;;;;;;5079353;28;20422;-81
2023/03/12 12:53:25;;;;;;;2.72;1.70;;;-1.90;99.90;;;;;;5079568;28;20689;-80
2023/03/12 12:56:03;;;;;;;2.45;1.40;;;-1.90;99.90;;;;;;5072272;28;20048;-80
2023/03/12 12:59:10;;;;;;;1.35;1.15;;;-1.80;99.90;;;;;;5083926;28;20126;-79
2023/03/12 13:01:41;;;;;;;3.03;1.88;;;-1.80;99.90;;;;;;5087104;28;20039;-80
2023/03/12 13:04:14;;;;;;;2.40;1.63;;;-1.80;99.90;;;;;;5081763;28;20155;-81